NORTHEAST SUFFOLK  -  Special Weather Statement Special Weather Statement        NORTHERN NASSAU  -  Special Weather Statement Special Weather Statement        NORTHWEST SUFFOLK  -  Special Weather Statement Special Weather Statement        SOUTHEAST SUFFOLK  -  Special Weather Statement Special Weather Statement        SOUTHERN NASSAU  -  Special Weather Statement Special Weather Statement        SOUTHWEST SUFFOLK  -  Special Weather Statement Special Weather Statement      

Active alerts

Northern Nassau
  Details for Northern Nassau Special Weather Statement
Southern Nassau
  Details for Southern Nassau Special Weather Statement
Northwest Suffolk
  Details for Northwest Suffolk Special Weather Statement
Southwest Suffolk
  Details for Southwest Suffolk Special Weather Statement
Northeast Suffolk
  Details for Northeast Suffolk Special Weather Statement
Southeast Suffolk
  Details for Southeast Suffolk Special Weather Statement


WXM80 ListenWXM80 Stop

You find our weather info also at:

UK Metoffice

WeatherCloud

Weather Underground

Northeastern Weather Network

AWEKAS

Citizen Weather Observer Program (CWOP)

HAMweather, WeatherForYou, PWS Weather


Weather Underground History page Text

Daily Summary for April 21, 2017 Units:  Metric    English   Both
« Previous Day
Next Day »
Daily Weekly Monthly Yearly Custom
  High: Low: Average:
Temperature: 11.1 °C 8.2 °C 9.1 °C
Dew Point: 9.4 °C 7.9 °C 8.6 °C
Humidity: 98 % 88 % 96 %
Wind Speed: 15.3 km/h 0 km/h 7.4 km/h
Wind Gust: 20.4 km/h - -
Wind:- - ENE
Pressure: 1017.2 hPa 1011.1 hPa -
Precipitation: 0 mm    
Historical Graphs
 
 
Tabular Data for April 21, 2017
Time Temperature Dew Point Pressure Wind Wind Speed Wind Gust Humidity Rainfall Rate (Hourly)
00:03 11.1 °C 9.4 °C 1017.2 hPa SE 1.9 km/h 9.7 km/h 89 % 0 mm
00:08 11.1 °C 9.3 °C 1016.8 hPa ESE 6.1 km/h 11.3 km/h 89 % 0 mm
00:13 11 °C 9.3 °C 1016.8 hPa ESE 3.1 km/h 4.8 km/h 89 % 0 mm
00:18 11 °C 9.3 °C 1016.5 hPa ESE 1.6 km/h 5.6 km/h 89 % 0 mm
00:23 10.9 °C 9.2 °C 1016.5 hPa ESE 4.2 km/h 11.1 km/h 89 % 0 mm
00:28 10.9 °C 9.2 °C 1016.5 hPa ESE 2.6 km/h 7.4 km/h 89 % 0 mm
00:33 10.9 °C 9.2 °C 1016.5 hPa SE 1 km/h 5.6 km/h 89 % 0 mm
00:38 10.9 °C 9.2 °C 1016.5 hPa ESE 3.1 km/h 5.6 km/h 89 % 0 mm
00:39 10.9 °C 9.2 °C 1016.5 hPa ESE 2.6 km/h 5.6 km/h 89 % 0 mm
00:44 10.9 °C 9.2 °C 1016.5 hPa East 7.2 km/h 9.7 km/h 89 % 0 mm
00:49 10.9 °C 9.2 °C 1016.5 hPa East 4 km/h 8 km/h 89 % 0 mm
00:54 10.8 °C 9.1 °C 1016.1 hPa East 5.5 km/h 11.1 km/h 89 % 0 mm
00:59 10.8 °C 9.1 °C 1016.5 hPa East 5.6 km/h 11.1 km/h 89 % 0 mm
01:04 10.8 °C 8.9 °C 1016.5 hPa East 5.3 km/h 7.4 km/h 88 % 0 mm
01:09 10.7 °C 9 °C 1016.5 hPa East 7.7 km/h 12.9 km/h 89 % 0 mm
01:14 10.7 °C 8.9 °C 1016.1 hPa East 9.8 km/h 14.5 km/h 89 % 0 mm
01:19 10.6 °C 8.7 °C 1016.1 hPa East 6.9 km/h 9.3 km/h 88 % 0 mm
01:24 10.6 °C 8.8 °C 1015.8 hPa East 4.3 km/h 9.7 km/h 89 % 0 mm
01:29 10.6 °C 8.8 °C 1015.8 hPa East 6.8 km/h 9.3 km/h 89 % 0 mm
01:34 10.4 °C 8.7 °C 1015.5 hPa East 5.8 km/h 11.1 km/h 89 % 0 mm
01:39 10.4 °C 8.7 °C 1015.5 hPa East 3.7 km/h 9.3 km/h 89 % 0 mm
01:44 10.4 °C 8.7 °C 1015.5 hPa East 5 km/h 9.7 km/h 89 % 0 mm
01:49 10.3 °C 8.6 °C 1016.5 hPa SSE 4.2 km/h 5.6 km/h 89 % 0 mm
01:54 10.3 °C 8.6 °C 1016.1 hPa SSE 1.1 km/h 5.6 km/h 89 % 0 mm
02:00 10.3 °C 8.7 °C 1016.1 hPa ESE 2.6 km/h 5.6 km/h 90 % 1.27 mm
02:05 10.2 °C 8.6 °C 1016.1 hPa SE 2.7 km/h 9.7 km/h 90 % 1.78 mm
02:10 10.1 °C 8.7 °C 1016.1 hPa Calm   1.9 km/h 91 % 2.29 mm
02:15 10.1 °C 8.7 °C 1016.1 hPa Calm     91 % 2.79 mm
02:20 10 °C 8.6 °C 1016.1 hPa SE 0.8 km/h 1.9 km/h 91 % 3.56 mm
02:23 9.9 °C 8.6 °C 1016.1 hPa Calm     91 % 3.81 mm
02:28 9.9 °C 8.7 °C 1015.5 hPa ENE 4.2 km/h 5.6 km/h 92 % 4.32 mm
02:38 9.7 °C 8.6 °C 1014.8 hPa East 8.7 km/h 11.1 km/h 93 % 4.83 mm
02:43 9.6 °C 8.6 °C 1014.8 hPa East 6 km/h 9.3 km/h 93 % 4.83 mm
02:48 9.5 °C 8.4 °C 1014.8 hPa East 7.2 km/h 11.1 km/h 93 % 4.83 mm
02:53 9.4 °C 8.5 °C 1014.4 hPa East 5 km/h 7.4 km/h 94 % 4.83 mm
02:58 9.4 °C 8.4 °C 1014.8 hPa East 5.1 km/h 11.1 km/h 94 % 3.81 mm
03:03 9.3 °C 8.4 °C 1014.8 hPa East 2.7 km/h 3.7 km/h 94 % 3.3 mm
03:08 9.3 °C 8.4 °C 1014.8 hPa ENE 3.9 km/h 5.6 km/h 94 % 2.79 mm
03:13 9.3 °C 8.4 °C 1014.8 hPa East 3.7 km/h 9.3 km/h 94 % 2.03 mm
03:18 9.3 °C 8.5 °C 1014.8 hPa East 3.4 km/h 7.4 km/h 95 % 1.27 mm
03:23 9.3 °C 8.5 °C 1014.8 hPa East 3.4 km/h 7.4 km/h 95 % 1.02 mm
03:28 9.3 °C 8.5 °C 1014.4 hPa East 2.6 km/h 7.4 km/h 95 % 0.51 mm
03:33 9.3 °C 8.5 °C 1014.4 hPa East 3.2 km/h 7.4 km/h 95 % 0.25 mm
03:38 9.3 °C 8.5 °C 1014.8 hPa East 2.7 km/h 5.6 km/h 95 % 0 mm
03:43 9.3 °C 8.5 °C 1014.8 hPa East 2.6 km/h 3.7 km/h 95 % 0 mm
03:48 9.3 °C 8.5 °C 1014.8 hPa East 0.2 km/h 1.9 km/h 95 % 0 mm
03:53 9.3 °C 8.5 °C 1014.8 hPa East 0.8 km/h 3.7 km/h 95 % 0 mm
03:58 9.2 °C 8.4 °C 1014.4 hPa East 1.6 km/h 3.7 km/h 95 % 0 mm
04:03 9.3 °C 8.5 °C 1014.4 hPa East 1.9 km/h 5.6 km/h 95 % 0 mm
04:08 9.3 °C 8.5 °C 1014.1 hPa East 3.1 km/h 7.4 km/h 95 % 0 mm
04:13 9.3 °C 8.5 °C 1014.1 hPa East 1.4 km/h 3.7 km/h 95 % 0 mm
04:18 9.3 °C 8.7 °C 1014.1 hPa East 1.9 km/h 4.8 km/h 96 % 0 mm
04:23 9.3 °C 8.7 °C 1014.1 hPa East 2.3 km/h 3.7 km/h 96 % 0 mm
04:28 9.3 °C 8.7 °C 1014.1 hPa East 4.3 km/h 7.4 km/h 96 % 0 mm
04:33 9.3 °C 8.7 °C 1013.8 hPa East 4.7 km/h 7.4 km/h 96 % 0 mm
04:38 9.3 °C 8.7 °C 1014.1 hPa East 1.8 km/h 3.7 km/h 96 % 0 mm
04:43 9.3 °C 8.7 °C 1014.1 hPa East 2.4 km/h 5.6 km/h 96 % 0 mm
04:48 9.3 °C 8.7 °C 1014.1 hPa ESE 2.7 km/h 5.6 km/h 96 % 0 mm
04:53 9.3 °C 8.7 °C 1014.1 hPa ESE 1.3 km/h 3.7 km/h 96 % 0 mm
04:58 9.3 °C 8.7 °C 1014.1 hPa East 0.6 km/h 1.9 km/h 96 % 0 mm
05:03 9.3 °C 8.7 °C 1014.1 hPa ENE 2.4 km/h 5.6 km/h 96 % 0 mm
05:08 9.3 °C 8.7 °C 1013.8 hPa ENE 4 km/h 6.4 km/h 96 % 0 mm
05:13 9.3 °C 8.7 °C 1013.8 hPa East 4.3 km/h 7.4 km/h 96 % 0 mm
05:18 9.3 °C 8.7 °C 1013.8 hPa East 3.4 km/h 5.6 km/h 96 % 0 mm
05:23 9.3 °C 8.7 °C 1013.8 hPa ENE 4 km/h 6.4 km/h 96 % 0 mm
05:28 9.3 °C 8.7 °C 1013.8 hPa East 4.7 km/h 5.6 km/h 96 % 0 mm
05:33 9.3 °C 8.7 °C 1013.4 hPa East 3.5 km/h 5.6 km/h 96 % 0 mm
05:38 9.2 °C 8.6 °C 1013.8 hPa ENE 2.9 km/h 5.6 km/h 96 % 0 mm
05:44 9.2 °C 8.6 °C 1013.8 hPa ENE 4.7 km/h 7.4 km/h 96 % 0 mm
05:49 9.2 °C 8.6 °C 1013.8 hPa ENE 4.5 km/h 5.6 km/h 96 % 0 mm
05:54 9.2 °C 8.6 °C 1013.8 hPa ENE 3.9 km/h 7.4 km/h 96 % 0 mm
05:59 9.1 °C 8.5 °C 1013.8 hPa East 2.6 km/h 5.6 km/h 96 % 0 mm
06:04 9.1 °C 8.5 °C 1014.4 hPa ENE 1.6 km/h 3.7 km/h 96 % 0 mm
06:09 9.1 °C 8.4 °C 1014.4 hPa ENE 1.8 km/h 5.6 km/h 96 % 0 mm
06:14 9.1 °C 8.4 °C 1014.8 hPa ENE 1.4 km/h 6.4 km/h 96 % 0 mm
06:19 9 °C 8.4 °C 1014.8 hPa East 7.9 km/h 13 km/h 96 % 0 mm
06:24 8.9 °C 8.3 °C 1014.4 hPa ENE 12.6 km/h 16.1 km/h 96 % 0 mm
06:29 8.9 °C 8.3 °C 1014.4 hPa ENE 11.9 km/h 16.7 km/h 96 % 0 mm
06:34 8.8 °C 8.2 °C 1014.4 hPa ENE 12.6 km/h 14.8 km/h 96 % 0 mm
06:39 8.8 °C 8.2 °C 1014.4 hPa ENE 11.3 km/h 14.5 km/h 96 % 0 mm
06:44 8.8 °C 8.2 °C 1014.8 hPa ENE 12.9 km/h 18.5 km/h 96 % 0 mm
06:49 8.8 °C 8.2 °C 1014.4 hPa East 8 km/h 11.3 km/h 96 % 0 mm
06:54 8.8 °C 8.2 °C 1014.8 hPa East 8.7 km/h 16.1 km/h 96 % 0 mm
06:59 8.8 °C 8.2 °C 1015.8 hPa North 8 km/h 11.1 km/h 96 % 0 mm
07:04 8.8 °C 8.3 °C 1015.5 hPa NE 10.9 km/h 14.8 km/h 97 % 0 mm
07:09 8.7 °C 8.3 °C 1014.8 hPa ENE 12.4 km/h 18.5 km/h 97 % 0.25 mm
07:14 8.7 °C 8.2 °C 1015.5 hPa NE 6.9 km/h 16.7 km/h 97 % 0.51 mm
07:19 8.7 °C 8.2 °C 1015.8 hPa East 5.3 km/h 14.8 km/h 97 % 0.76 mm
07:24 8.6 °C 8 °C 1015.5 hPa East 14 km/h 18.5 km/h 96 % 1.52 mm
07:29 8.6 °C 8.1 °C 1015.5 hPa ENE 11.6 km/h 20.4 km/h 97 % 2.03 mm
07:34 8.6 °C 8.1 °C 1015.5 hPa ENE 15.3 km/h 19.3 km/h 97 % 2.03 mm
07:39 8.5 °C 8.1 °C 1015.1 hPa ENE 12.6 km/h 18.5 km/h 97 % 2.03 mm
07:44 8.6 °C 8.1 °C 1014.8 hPa NE 11.9 km/h 14.8 km/h 97 % 2.29 mm
07:49 8.6 °C 8.1 °C 1015.1 hPa East 9 km/h 14.8 km/h 97 % 2.29 mm
07:54 8.6 °C 8.2 °C 1015.1 hPa ENE 8.9 km/h 13 km/h 97 % 2.29 mm
07:59 8.6 °C 8.2 °C 1014.8 hPa East 11.7 km/h 14.8 km/h 97 % 2.54 mm
08:04 8.7 °C 8.2 °C 1014.8 hPa East 9.7 km/h 14.8 km/h 97 % 2.54 mm
08:09 8.6 °C 8.2 °C 1014.8 hPa East 8.9 km/h 11.3 km/h 97 % 2.54 mm
08:14 8.7 °C 8.2 °C 1014.8 hPa East 9.8 km/h 11.3 km/h 97 % 2.29 mm
08:19 8.7 °C 8.2 °C 1014.8 hPa East 9.8 km/h 13 km/h 97 % 2.29 mm
08:24 8.7 °C 8.3 °C 1014.8 hPa East 10.1 km/h 13 km/h 97 % 1.78 mm
08:29 8.7 °C 8.3 °C 1014.4 hPa East 10.5 km/h 13 km/h 97 % 1.52 mm
08:34 8.8 °C 8.3 °C 1014.4 hPa East 10.3 km/h 14.8 km/h 97 % 1.78 mm
08:39 8.8 °C 8.3 °C 1014.1 hPa East 10.5 km/h 14.8 km/h 97 % 2.03 mm
08:44 8.8 °C 8.3 °C 1014.1 hPa East 9.2 km/h 13 km/h 97 % 1.78 mm
08:49 8.8 °C 8.3 °C 1014.1 hPa East 10.8 km/h 14.8 km/h 97 % 2.03 mm
08:54 8.8 °C 8.4 °C 1014.1 hPa East 8.4 km/h 12.9 km/h 97 % 2.29 mm
08:59 8.8 °C 8.4 °C 1014.1 hPa East 6.3 km/h 11.1 km/h 97 % 2.03 mm
09:04 8.8 °C 8.4 °C 1014.4 hPa NE 4.3 km/h 7.4 km/h 97 % 2.29 mm
09:09 8.9 °C 8.4 °C 1014.1 hPa ENE 4.8 km/h 5.6 km/h 97 % 2.03 mm
09:14 8.8 °C 8.4 °C 1014.1 hPa ENE 4.3 km/h 5.6 km/h 97 % 2.03 mm
09:19 8.8 °C 8.4 °C 1014.1 hPa East 5.8 km/h 9.3 km/h 97 % 1.78 mm
09:24 8.9 °C 8.4 °C 1014.1 hPa ENE 4.2 km/h 5.6 km/h 97 % 1.52 mm
09:29 8.9 °C 8.5 °C 1014.1 hPa East 4.3 km/h 7.4 km/h 97 % 1.27 mm
09:35 8.9 °C 8.5 °C 1014.1 hPa ENE 3.2 km/h 5.6 km/h 97 % 1.02 mm
09:40 9 °C 8.6 °C 1014.1 hPa ENE 5.8 km/h 6.4 km/h 97 % 0.76 mm
09:45 8.9 °C 8.5 °C 1014.1 hPa ENE 5.6 km/h 7.4 km/h 97 % 0.76 mm
09:50 8.9 °C 8.4 °C 1014.1 hPa ENE 8 km/h 11.1 km/h 97 % 0.51 mm
09:55 8.8 °C 8.3 °C 1014.1 hPa ENE 9.5 km/h 13 km/h 97 % 0.25 mm
10:00 8.7 °C 8.3 °C 1014.1 hPa ENE 8.7 km/h 13 km/h 97 % 0.25 mm
10:05 8.7 °C 8.3 °C 1014.1 hPa ENE 9 km/h 13 km/h 97 % 0 mm
10:10 8.7 °C 8.3 °C 1014.1 hPa ENE 10.9 km/h 14.8 km/h 97 % 0 mm
10:15 8.8 °C 8.3 °C 1013.8 hPa ENE 10.9 km/h 14.8 km/h 97 % 0 mm
10:20 8.8 °C 8.3 °C 1013.8 hPa East 8.9 km/h 16.7 km/h 97 % 0 mm
10:25 8.8 °C 8.3 °C 1013.8 hPa ENE 8.2 km/h 13 km/h 97 % 0 mm
10:30 8.8 °C 8.4 °C 1013.4 hPa East 7.2 km/h 11.1 km/h 97 % 0 mm
10:35 8.9 °C 8.6 °C 1013.4 hPa ENE 8.7 km/h 14.5 km/h 98 % 0 mm
10:40 8.9 °C 8.7 °C 1013.4 hPa NE 9.7 km/h 18.5 km/h 98 % 0 mm
10:45 8.9 °C 8.6 °C 1013.8 hPa ENE 13.7 km/h 18.5 km/h 98 % 0 mm
10:50 8.9 °C 8.6 °C 1013.4 hPa East 10.3 km/h 14.8 km/h 98 % 0 mm
10:55 9 °C 8.7 °C 1013.1 hPa ENE 9 km/h 14.8 km/h 98 % 0 mm
11:01 9.1 °C 8.6 °C 1013.1 hPa ENE 8 km/h 11.1 km/h 97 % 0 mm
11:06 9.1 °C 8.8 °C 1013.1 hPa ENE 14.2 km/h 17.7 km/h 98 % 0 mm
11:11 9 °C 8.7 °C 1013.1 hPa ENE 12.2 km/h 18.5 km/h 98 % 0 mm
11:16 8.9 °C 8.7 °C 1013.4 hPa NE 9.3 km/h 18.5 km/h 98 % 0 mm
11:21 8.9 °C 8.7 °C 1013.1 hPa NE 9.5 km/h 14.8 km/h 98 % 0 mm
11:26 9 °C 8.7 °C 1013.1 hPa ENE 8.4 km/h 13 km/h 98 % 0 mm
11:31 9 °C 8.7 °C 1013.1 hPa ENE 10 km/h 14.8 km/h 98 % 0 mm
11:36 9.1 °C 8.8 °C 1012.8 hPa East 8.2 km/h 11.3 km/h 98 % 0 mm
11:41 9.1 °C 8.8 °C 1013.1 hPa ENE 8.5 km/h 11.1 km/h 98 % 0 mm
11:46 9.2 °C 8.9 °C 1013.1 hPa East 8.2 km/h 11.1 km/h 98 % 0 mm
11:51 9.2 °C 8.9 °C 1013.1 hPa ENE 8 km/h 16.7 km/h 98 % 0 mm
11:56 9.2 °C 8.9 °C 1012.8 hPa ENE 7.9 km/h 8 km/h 98 % 0 mm
12:01 9.2 °C 8.9 °C 1012.8 hPa East 7.6 km/h 11.1 km/h 98 % 0 mm
12:06 9.3 °C 9.1 °C 1012.8 hPa East 7.9 km/h 11.3 km/h 98 % 0 mm
12:11 9.4 °C 9.2 °C 1012.8 hPa East 7.1 km/h 9.3 km/h 98 % 0 mm
12:16 9.6 °C 9.3 °C 1012.8 hPa ENE 8.7 km/h 14.8 km/h 98 % 0 mm
12:21 9.5 °C 9.2 °C 1012.8 hPa ENE 10.3 km/h 14.8 km/h 98 % 0 mm
12:26 9.4 °C 9.1 °C 1012.8 hPa ENE 10 km/h 16.7 km/h 98 % 0 mm
12:31 9.3 °C 9 °C 1013.1 hPa ENE 11.7 km/h 16.7 km/h 98 % 0 mm
12:36 9.3 °C 9 °C 1012.4 hPa ENE 11.3 km/h 13 km/h 98 % 0 mm
12:41 9.2 °C 8.9 °C 1012.8 hPa ENE 9.8 km/h 20.4 km/h 98 % 0 mm
12:46 9.3 °C 9 °C 1012.8 hPa ENE 10.1 km/h 16.7 km/h 98 % 0 mm
12:51 9.4 °C 9.2 °C 1012.4 hPa ENE 10.6 km/h 14.8 km/h 98 % 0 mm
12:54 9.5 °C 9.2 °C 1012.4 hPa NE 10.1 km/h 16.7 km/h 98 % 0 mm
12:59 9.6 °C 9.3 °C 1012.8 hPa ENE 13.8 km/h 20.4 km/h 98 % 0 mm
13:04 9.5 °C 9.2 °C 1012.8 hPa ENE 9.3 km/h 18.5 km/h 98 % 0 mm
13:09 9.4 °C 9.2 °C 1013.1 hPa ENE 13.7 km/h 17.7 km/h 98 % 0 mm
13:14 9.3 °C 9 °C 1013.1 hPa East 11.6 km/h 17.7 km/h 98 % 0 mm
13:20 9.2 °C 8.9 °C 1012.8 hPa ENE 12.9 km/h 18.5 km/h 98 % 0 mm
13:25 9.2 °C 8.8 °C 1013.1 hPa ENE 8.5 km/h 16.7 km/h 97 % 0 mm
13:30 9.2 °C 8.8 °C 1012.8 hPa East 5.1 km/h 14.8 km/h 97 % 0 mm
13:35 9.3 °C 9 °C 1012.8 hPa ENE 14.8 km/h 18.5 km/h 98 % 0 mm
13:40 9.3 °C 9 °C 1012.4 hPa ENE 7.7 km/h 14.5 km/h 98 % 0 mm
13:45 9.4 °C 9.1 °C 1012.4 hPa East 7.1 km/h 13 km/h 98 % 0 mm
13:50 9.4 °C 9.1 °C 1012.4 hPa East 8.9 km/h 18.5 km/h 98 % 0 mm
13:55 9.3 °C 9.1 °C 1012.4 hPa ENE 9.5 km/h 13 km/h 98 % 0 mm
14:00 9.4 °C 9.2 °C 1012.4 hPa ENE 13.5 km/h 16.7 km/h 98 % 0 mm
14:05 9.4 °C 9.1 °C 1012.1 hPa East 8.5 km/h 16.7 km/h 98 % 0 mm
14:10 9.4 °C 9.1 °C 1012.4 hPa ENE 7.7 km/h 17.7 km/h 98 % 0 mm
14:15 9.3 °C 9.1 °C 1012.4 hPa East 9.3 km/h 14.8 km/h 98 % 0 mm
14:20 9.4 °C 9.1 °C 1012.4 hPa East 12.1 km/h 16.7 km/h 98 % 0 mm
14:25 9.3 °C 9.1 °C 1012.4 hPa NE 12.1 km/h 20.4 km/h 98 % 0 mm
14:30 9.4 °C 9.1 °C 1012.4 hPa ENE 10.8 km/h 16.1 km/h 98 % 0 mm
14:35 9.4 °C 9.2 °C 1012.4 hPa NE 9.3 km/h 16.7 km/h 98 % 0 mm
14:40 9.4 °C 9.2 °C 1012.4 hPa ENE 10.5 km/h 16.7 km/h 98 % 0 mm
14:45 9.4 °C 9.1 °C 1012.4 hPa ENE 10.3 km/h 16.7 km/h 98 % 0 mm
14:50 9.3 °C 9.1 °C 1012.4 hPa ENE 8.5 km/h 14.8 km/h 98 % 0 mm
14:55 9.3 °C 9.1 °C 1012.1 hPa NE 10.3 km/h 14.8 km/h 98 % 0 mm
15:00 9.4 °C 9.1 °C 1012.1 hPa ENE 11.3 km/h 14.8 km/h 98 % 0 mm
15:05 9.3 °C 9.1 °C 1011.7 hPa ENE 11.7 km/h 16.7 km/h 98 % 0 mm
15:10 9.3 °C 9.1 °C 1011.7 hPa NE 7.1 km/h 13 km/h 98 % 0 mm
15:15 9.4 °C 9.1 °C 1011.7 hPa NE 5.3 km/h 9.3 km/h 98 % 0 mm
15:20 9.4 °C 9.2 °C 1011.7 hPa ENE 6.4 km/h 9.3 km/h 98 % 0 mm
15:30 9.4 °C 9.1 °C 1011.4 hPa ENE 6.1 km/h 11.3 km/h 98 % 0 mm
15:35 9.4 °C 9.1 °C 1011.4 hPa ENE 12.9 km/h 18.5 km/h 98 % 0 mm
15:40 9.3 °C 9 °C 1011.4 hPa East 8.4 km/h 14.8 km/h 98 % 0 mm
15:45 9.2 °C 8.9 °C 1011.7 hPa NE 8.5 km/h 13 km/h 98 % 0 mm
15:50 9.2 °C 8.9 °C 1011.7 hPa ENE 6 km/h 9.3 km/h 98 % 0 mm
15:55 9.2 °C 8.9 °C 1011.4 hPa ENE 6.4 km/h 11.3 km/h 98 % 0 mm
16:00 9.3 °C 9 °C 1011.4 hPa ENE 6.1 km/h 11.1 km/h 98 % 0 mm
16:05 9.2 °C 8.7 °C 1011.4 hPa East 5.3 km/h 13 km/h 97 % 0 mm
16:10 9.1 °C 8.7 °C 1011.4 hPa ENE 12.9 km/h 16.7 km/h 97 % 0 mm
16:15 9.1 °C 8.7 °C 1011.1 hPa ENE 9.8 km/h 13 km/h 97 % 0 mm
16:20 9.2 °C 8.7 °C 1011.4 hPa ENE 7.9 km/h 11.1 km/h 97 % 0 mm
16:25 9.1 °C 8.7 °C 1011.4 hPa ENE 9.5 km/h 13 km/h 97 % 0 mm
16:31 9.1 °C 8.6 °C 1011.7 hPa ENE 6 km/h 13 km/h 97 % 0 mm
16:37 9 °C 8.7 °C 1011.7 hPa ENE 9.2 km/h 13 km/h 98 % 0 mm
16:42 9 °C 8.7 °C 1011.7 hPa ENE 4.5 km/h 14.8 km/h 98 % 0 mm
16:47 9 °C 8.7 °C 1011.7 hPa ENE 7.6 km/h 13 km/h 98 % 0 mm
16:52 9 °C 8.7 °C 1011.7 hPa ENE 7.6 km/h 11.1 km/h 98 % 0 mm
16:57 9 °C 8.7 °C 1011.4 hPa ENE 9.3 km/h 11.3 km/h 98 % 0 mm
17:02 9 °C 8.7 °C 1011.7 hPa ENE 11.1 km/h 13 km/h 98 % 0 mm
17:03 8.9 °C 8.7 °C 1011.4 hPa East 8.7 km/h 13 km/h 98 % 0 mm
17:08 8.9 °C 8.7 °C 1011.4 hPa East 8.7 km/h 11.3 km/h 98 % 0 mm
17:13 8.9 °C 8.7 °C 1011.7 hPa ENE 7.2 km/h 14.8 km/h 98 % 0 mm
17:18 9 °C 8.7 °C 1011.4 hPa ENE 5.5 km/h 6.4 km/h 98 % 0 mm
17:21 9 °C 8.7 °C 1011.4 hPa ENE 9.5 km/h 13 km/h 98 % 0 mm
17:26 8.9 °C 8.7 °C 1011.4 hPa NE 7.6 km/h 14.8 km/h 98 % 0 mm
17:31 8.9 °C 8.7 °C 1011.4 hPa ENE 5.6 km/h 16.7 km/h 98 % 0 mm
17:36 8.9 °C 8.7 °C 1011.4 hPa ENE 9 km/h 14.8 km/h 98 % 0 mm
17:41 8.9 °C 8.7 °C 1011.4 hPa NE 7.9 km/h 11.1 km/h 98 % 0 mm
17:46 8.9 °C 8.6 °C 1011.4 hPa ENE 6.9 km/h 13 km/h 98 % 0 mm
17:52 8.8 °C 8.6 °C 1011.7 hPa ENE 6 km/h 11.1 km/h 98 % 0 mm
17:57 8.8 °C 8.6 °C 1011.7 hPa ENE 5.8 km/h 14.5 km/h 98 % 0 mm
18:02 8.8 °C 8.6 °C 1011.7 hPa ENE 6.3 km/h 13 km/h 98 % 0 mm
18:07 8.8 °C 8.6 °C 1011.7 hPa ENE 4.8 km/h 7.4 km/h 98 % 0 mm
18:12 8.8 °C 8.6 °C 1011.7 hPa ENE 5 km/h 11.1 km/h 98 % 0 mm
18:17 8.8 °C 8.6 °C 1011.4 hPa ENE 7.2 km/h 13 km/h 98 % 0 mm
18:22 8.8 °C 8.6 °C 1011.7 hPa ENE 8.2 km/h 11.3 km/h 98 % 0 mm
18:27 8.8 °C 8.5 °C 1011.7 hPa ENE 6.9 km/h 14.5 km/h 98 % 0 mm
18:32 8.7 °C 8.4 °C 1011.4 hPa ENE 6.4 km/h 11.1 km/h 98 % 0 mm
18:37 8.7 °C 8.4 °C 1011.4 hPa NE 5.8 km/h 9.3 km/h 98 % 0 mm
18:42 8.7 °C 8.4 °C 1011.4 hPa East 6.4 km/h 11.1 km/h 98 % 0 mm
18:47 8.7 °C 8.4 °C 1011.4 hPa ENE 8 km/h 12.9 km/h 98 % 0 mm
18:52 8.7 °C 8.4 °C 1011.4 hPa ENE 4.8 km/h 11.3 km/h 98 % 0 mm
18:57 8.7 °C 8.4 °C 1011.4 hPa ENE 6 km/h 11.1 km/h 98 % 0 mm
19:02 8.7 °C 8.4 °C 1011.4 hPa ENE 4.8 km/h 11.3 km/h 98 % 0 mm
19:07 8.7 °C 8.4 °C 1011.7 hPa ENE 4.8 km/h 14.5 km/h 98 % 0 mm
19:12 8.7 °C 8.4 °C 1011.4 hPa ENE 8 km/h 16.1 km/h 98 % 0 mm
19:17 8.6 °C 8.3 °C 1011.4 hPa ENE 6.4 km/h 9.3 km/h 98 % 0 mm
19:22 8.6 °C 8.3 °C 1011.4 hPa ENE 8 km/h 11.3 km/h 98 % 0 mm
19:27 8.6 °C 8.3 °C 1011.4 hPa ENE 9.7 km/h 14.5 km/h 98 % 0 mm
19:32 8.6 °C 8.3 °C 1011.4 hPa ENE 8 km/h 12.9 km/h 98 % 0 mm
19:37 8.5 °C 8.2 °C 1011.7 hPa ENE 11.3 km/h 14.5 km/h 98 % 0 mm
19:42 8.5 °C 8.2 °C 1011.7 hPa ENE 9.7 km/h 19.3 km/h 98 % 0 mm
19:47 8.4 °C 8.2 °C 1011.7 hPa ENE 11.3 km/h 19.3 km/h 98 % 0 mm
19:52 8.4 °C 8.2 °C 1011.7 hPa ENE 9.7 km/h 16.1 km/h 98 % 0 mm
19:57 8.4 °C 8.2 °C 1011.7 hPa ENE 8.4 km/h 14.5 km/h 98 % 0 mm
20:02 8.4 °C 8.2 °C 1012.1 hPa ENE 8.7 km/h 12.9 km/h 98 % 0 mm
20:07 8.4 °C 8.2 °C 1012.1 hPa ENE 12.1 km/h 16.7 km/h 98 % 0 mm
20:12 8.4 °C 8.2 °C 1012.1 hPa ENE 8.4 km/h 13 km/h 98 % 0 mm
20:17 8.4 °C 8.2 °C 1012.1 hPa East 7.6 km/h 14.8 km/h 98 % 0 mm
20:22 8.4 °C 8.2 °C 1012.1 hPa ENE 5.3 km/h 11.1 km/h 98 % 0 mm
20:27 8.4 °C 8.2 °C 1012.1 hPa East 8.2 km/h 11.1 km/h 98 % 0 mm
20:32 8.4 °C 8.2 °C 1012.1 hPa ENE 10.5 km/h 13 km/h 98 % 0 mm
20:37 8.4 °C 8.2 °C 1011.7 hPa ENE 9 km/h 14.8 km/h 98 % 0 mm
20:42 8.4 °C 8.1 °C 1012.4 hPa East 10.1 km/h 18.5 km/h 98 % 0 mm
20:47 8.3 °C 8.1 °C 1012.4 hPa ENE 13.2 km/h 16.7 km/h 98 % 0 mm
20:52 8.3 °C 8.1 °C 1012.4 hPa ENE 9.7 km/h 16.7 km/h 98 % 0 mm
20:57 8.3 °C 8 °C 1012.4 hPa ENE 9.3 km/h 18.5 km/h 98 % 0 mm
21:02 8.3 °C 8 °C 1012.4 hPa ENE 13.5 km/h 18.5 km/h 98 % 0 mm
21:07 8.3 °C 8 °C 1012.4 hPa ENE 11.6 km/h 16.7 km/h 98 % 0 mm
21:13 8.3 °C 8 °C 1012.4 hPa ENE 11.3 km/h 20.4 km/h 98 % 0 mm
21:18 8.3 °C 8.1 °C 1012.4 hPa ENE 11.4 km/h 16.7 km/h 98 % 0 mm
21:23 8.3 °C 8 °C 1012.4 hPa ENE 10.8 km/h 18.5 km/h 98 % 0 mm
21:28 8.3 °C 8.1 °C 1012.4 hPa East 9.5 km/h 13 km/h 98 % 0 mm
21:33 8.3 °C 8.1 °C 1012.1 hPa East 9.7 km/h 13 km/h 98 % 0 mm
21:38 8.3 °C 8.1 °C 1012.4 hPa ENE 8.5 km/h 11.1 km/h 98 % 0 mm
21:43 8.3 °C 8.1 °C 1012.4 hPa East 8 km/h 9.3 km/h 98 % 0 mm
21:48 8.3 °C 8 °C 1012.4 hPa ENE 9.7 km/h 13 km/h 98 % 0 mm
21:53 8.3 °C 8 °C 1012.4 hPa ENE 7.9 km/h 11.1 km/h 98 % 0 mm
21:58 8.3 °C 8 °C 1012.4 hPa ENE 8.4 km/h 11.1 km/h 98 % 0 mm
22:03 8.3 °C 8 °C 1012.4 hPa East 9 km/h 11.1 km/h 98 % 0 mm
22:08 8.3 °C 8 °C 1012.1 hPa East 9.5 km/h 13 km/h 98 % 0 mm
22:13 8.3 °C 8 °C 1012.1 hPa East 7.6 km/h 14.8 km/h 98 % 0 mm
22:18 8.3 °C 8 °C 1012.1 hPa ENE 6.6 km/h 9.3 km/h 98 % 0 mm
22:23 8.2 °C 7.9 °C 1012.4 hPa ENE 7.1 km/h 9.3 km/h 98 % 0 mm
22:28 8.3 °C 8 °C 1012.4 hPa ENE 5.3 km/h 9.3 km/h 98 % 0 mm
22:34 8.3 °C 8 °C 1012.4 hPa ENE 8.2 km/h 9.3 km/h 98 % 0 mm
22:44 8.2 °C 7.9 °C 1012.4 hPa ENE 5.6 km/h 14.8 km/h 98 % 0 mm
22:49 8.2 °C 7.9 °C 1012.4 hPa ENE 7.2 km/h 11.1 km/h 98 % 0 mm
22:54 8.2 °C 7.9 °C 1012.4 hPa ENE 7.9 km/h 11.1 km/h 98 % 0 mm
22:59 8.2 °C 7.9 °C 1012.4 hPa East 7.9 km/h 16.7 km/h 98 % 0 mm
23:04 8.2 °C 7.9 °C 1012.4 hPa East 8.4 km/h 11.3 km/h 98 % 0 mm
23:09 8.2 °C 7.9 °C 1012.4 hPa ENE 10 km/h 11.3 km/h 98 % 0 mm
23:14 8.2 °C 7.9 °C 1012.4 hPa ENE 9.7 km/h 16.1 km/h 98 % 0 mm
23:19 8.3 °C 8 °C 1012.4 hPa ENE 11.3 km/h 16.1 km/h 98 % 0 mm
23:24 8.3 °C 8 °C 1012.8 hPa ENE 11.1 km/h 18.5 km/h 98 % 0 mm
23:29 8.3 °C 8.1 °C 1012.8 hPa ENE 12.1 km/h 16.7 km/h 98 % 0 mm
23:34 8.4 °C 8.1 °C 1012.8 hPa ENE 5.8 km/h 7.4 km/h 98 % 0 mm
23:39 8.4 °C 8.1 °C 1012.8 hPa East 8 km/h 11.1 km/h 98 % 0 mm
23:44 8.4 °C 8.2 °C 1012.8 hPa ENE 5.8 km/h 9.3 km/h 98 % 0 mm
23:49 8.4 °C 8.2 °C 1012.8 hPa ENE 6.8 km/h 9.3 km/h 98 % 0 mm
23:54 8.4 °C 8.2 °C 1012.4 hPa ENE 6.3 km/h 7.4 km/h 98 % 0 mm
23:59 8.4 °C 8.2 °C 1012.4 hPa ENE 7.7 km/h 11.1 km/h 98 % 0 mm
Crab Meadow Weather
Compliments of Weather Underground - 3 mb

Script developed by  Jim McMurry - jmcmurry@mwt.net Adapted for the template by  Wim van der Kuil - Leuven-Template.eu

Astronomy: One day on Jupiter is only 9 hours and 55 minutes.